createdAt,value
2019-03-28T00:00:50.224Z,101094.73
2019-03-28T00:03:23.466Z,101097.75
2019-03-28T00:05:56.706Z,101100.20
2019-03-28T00:08:29.973Z,101100.98
2019-03-28T00:11:03.226Z,101101.56
2019-03-28T00:13:36.486Z,101102.48
2019-03-28T00:16:10.785Z,101100.16
2019-03-28T00:18:44.240Z,101098.27
2019-03-28T00:21:17.467Z,101096.37
2019-03-28T00:24:13.339Z,101093.78
2019-03-28T00:26:46.576Z,101089.12
2019-03-28T00:29:19.847Z,101083.39
2019-03-28T00:31:53.093Z,101086.36
2019-03-28T00:34:26.365Z,101081.14
2019-03-28T00:36:59.637Z,101077.47
2019-03-28T00:39:32.894Z,101078.41
2019-03-28T00:42:06.128Z,101075.48
2019-03-28T00:44:39.395Z,101078.01
2019-03-28T00:47:12.619Z,101080.54
2019-03-28T00:49:45.909Z,101070.86
2019-03-28T00:52:19.137Z,101068.42
2019-03-28T00:54:52.391Z,101072.23
2019-03-28T00:57:25.615Z,101069.11
2019-03-28T00:59:58.949Z,101070.53
2019-03-28T01:02:32.195Z,101072.45
2019-03-28T01:05:05.731Z,101069.52
2019-03-28T01:07:39.029Z,101072.52
2019-03-28T01:10:12.305Z,101071.88
2019-03-28T01:12:45.547Z,101075.20
2019-03-28T01:15:18.795Z,101070.05
2019-03-28T01:17:52.033Z,101070.94
2019-03-28T01:20:25.278Z,101079.22
2019-03-28T01:22:58.504Z,101084.93
2019-03-28T01:25:31.761Z,101082.43
2019-03-28T01:28:04.982Z,101083.53
2019-03-28T01:30:39.324Z,101079.97
2019-03-28T01:33:12.539Z,101079.61
2019-03-28T01:35:46.851Z,101078.19
2019-03-28T01:38:20.279Z,101078.66
2019-03-28T01:40:53.708Z,101075.83
2019-03-28T01:43:27.242Z,101071.28
2019-03-28T01:46:00.651Z,101072.66
2019-03-28T01:48:33.894Z,101070.87
2019-03-28T01:51:07.137Z,101064.17
2019-03-28T01:53:40.422Z,101060.43
2019-03-28T01:56:13.668Z,101058.62
2019-03-28T01:58:46.895Z,101060.36
2019-03-28T02:01:20.126Z,101065.23
2019-03-28T02:03:53.336Z,101063.29
2019-03-28T02:06:26.587Z,101063.36
2019-03-28T02:08:59.797Z,101058.28
2019-03-28T02:11:33.062Z,101065.10
2019-03-28T02:14:06.344Z,101059.96
2019-03-28T02:16:39.603Z,101066.17
2019-03-28T02:19:12.899Z,101067.14
2019-03-28T02:21:46.149Z,101068.28
2019-03-28T02:24:19.385Z,101065.67
2019-03-28T02:26:52.612Z,101064.37
2019-03-28T02:29:25.839Z,101065.61
2019-03-28T02:31:59.084Z,101067.93
2019-03-28T02:34:32.302Z,101068.93
2019-03-28T02:37:05.553Z,101067.66
2019-03-28T02:39:38.765Z,101063.70
2019-03-28T02:42:12.011Z,101064.31
2019-03-28T02:44:45.260Z,101064.51
2019-03-28T02:47:18.510Z,101062.26
2019-03-28T02:49:51.748Z,101058.90
2019-03-28T02:52:24.987Z,101054.97
2019-03-28T02:54:58.219Z,101054.34
2019-03-28T02:57:40.805Z,101050.47
2019-03-28T03:00:06.858Z,101049.23
2019-03-28T03:02:41.372Z,101044.00
2019-03-28T03:05:14.604Z,101050.05
2019-03-28T03:07:47.862Z,101050.05
2019-03-28T03:10:21.083Z,101055.40
2019-03-28T03:12:54.332Z,101056.91
2019-03-28T03:15:27.585Z,101056.66
2019-03-28T03:18:00.834Z,101055.92
2019-03-28T03:20:34.061Z,101057.85
2019-03-28T03:23:07.305Z,101064.13
2019-03-28T03:25:40.518Z,101058.52
2019-03-28T03:28:13.758Z,101059.97
2019-03-28T03:30:46.981Z,101053.19
2019-03-28T03:33:20.216Z,101060.20
2019-03-28T03:35:53.430Z,101063.27
2019-03-28T03:38:26.673Z,101066.38
2019-03-28T03:40:59.894Z,101066.00
2019-03-28T03:43:33.136Z,101068.95
2019-03-28T03:46:06.421Z,101076.52
2019-03-28T03:48:39.672Z,101069.36
2019-03-28T03:51:12.904Z,101073.26
2019-03-28T03:53:46.137Z,101068.00
2019-03-28T03:56:19.461Z,101068.69
2019-03-28T03:58:52.679Z,101069.99
2019-03-28T04:01:25.918Z,101070.25
2019-03-28T04:03:59.189Z,101075.66
2019-03-28T04:06:33.480Z,101074.29
2019-03-28T04:09:08.135Z,101080.16
2019-03-28T04:11:41.396Z,101080.28
2019-03-28T04:14:14.697Z,101094.39
2019-03-28T04:16:47.933Z,101096.90
2019-03-28T04:19:21.183Z,101095.98
2019-03-28T04:21:54.398Z,101097.15
2019-03-28T04:24:27.642Z,101096.30
2019-03-28T04:27:00.844Z,101096.20
2019-03-28T04:29:34.096Z,101102.56
2019-03-28T04:32:07.311Z,101098.55
2019-03-28T04:34:40.597Z,101108.43
2019-03-28T04:37:13.809Z,101105.85
2019-03-28T04:39:47.052Z,101109.55
2019-03-28T04:42:20.307Z,101112.17
2019-03-28T04:44:53.517Z,101112.20
2019-03-28T04:47:26.760Z,101109.75
2019-03-28T04:50:00.030Z,101114.37
2019-03-28T04:52:33.290Z,101113.38
2019-03-28T04:55:06.960Z,101110.42
2019-03-28T04:57:41.131Z,101109.88
2019-03-28T05:00:14.686Z,101108.55
2019-03-28T05:02:47.900Z,101110.56
2019-03-28T05:05:21.137Z,101109.33
2019-03-28T05:07:54.362Z,101105.56
2019-03-28T05:10:27.600Z,101112.66
2019-03-28T05:13:00.824Z,101115.29
2019-03-28T05:15:34.082Z,101116.86
2019-03-28T05:18:07.324Z,101113.86
2019-03-28T05:20:40.719Z,101112.93
2019-03-28T05:23:14.367Z,101112.91
2019-03-28T05:25:47.777Z,101114.08
2019-03-28T05:28:21.021Z,101115.39
2019-03-28T05:30:54.265Z,101117.00
2019-03-28T05:33:27.486Z,101115.00
2019-03-28T05:36:00.728Z,101117.03
2019-03-28T05:38:33.941Z,101115.37
2019-03-28T05:41:07.189Z,101113.73
2019-03-28T05:43:40.408Z,101116.90
2019-03-28T05:46:13.685Z,101116.28
2019-03-28T05:48:46.983Z,101121.98
2019-03-28T05:51:20.225Z,101123.33
2019-03-28T05:53:53.452Z,101136.05
2019-03-28T05:56:26.713Z,101137.56
2019-03-28T05:59:10.645Z,101139.09
2019-03-28T06:01:36.436Z,101135.64
2019-03-28T06:04:10.118Z,101141.28
2019-03-28T06:06:44.244Z,101138.91
2019-03-28T06:09:17.552Z,101146.69
2019-03-28T06:11:52.965Z,101143.05
2019-03-28T06:14:25.713Z,101147.11
2019-03-28T06:16:58.961Z,101141.54
2019-03-28T06:19:32.201Z,101142.78
2019-03-28T06:22:07.101Z,101146.89
2019-03-28T06:24:40.327Z,101145.87
2019-03-28T06:27:13.582Z,101149.24
2019-03-28T06:29:52.718Z,101146.67
2019-03-28T06:32:26.058Z,101150.67
2019-03-28T06:34:59.286Z,101151.08
2019-03-28T06:37:32.670Z,101148.45
2019-03-28T06:40:06.029Z,101144.89
2019-03-28T06:42:39.264Z,101145.28
2019-03-28T06:45:12.512Z,101147.50
2019-03-28T06:47:45.795Z,101151.20
2019-03-28T06:50:19.065Z,101149.64
2019-03-28T06:52:52.315Z,101149.58
2019-03-28T06:55:25.706Z,101145.83
2019-03-28T06:57:59.188Z,101147.75
2019-03-28T07:00:32.425Z,101149.17
2019-03-28T07:03:05.682Z,101147.98
2019-03-28T07:05:38.934Z,101149.36
2019-03-28T07:08:12.210Z,101151.22
2019-03-28T07:10:45.444Z,101146.41
2019-03-28T07:13:18.701Z,101143.44
2019-03-28T07:15:51.946Z,101147.33
2019-03-28T07:18:25.205Z,101140.08
2019-03-28T07:20:58.442Z,101135.22
2019-03-28T07:23:31.712Z,101139.23
2019-03-28T07:26:04.958Z,101140.73
2019-03-28T07:28:38.360Z,101141.05
2019-03-28T07:31:12.586Z,101142.13
2019-03-28T07:33:46.100Z,101143.92
2019-03-28T07:36:19.359Z,101139.95
2019-03-28T07:38:52.621Z,101137.76
2019-03-28T07:41:25.858Z,101128.03
2019-03-28T07:43:59.229Z,101128.02
2019-03-28T07:46:32.449Z,101123.19
2019-03-28T07:49:05.724Z,101118.82
2019-03-28T07:51:38.960Z,101119.06
2019-03-28T07:54:13.307Z,101119.67
2019-03-28T07:56:46.975Z,101119.02
2019-03-28T07:59:20.244Z,101119.81
2019-03-28T08:01:53.474Z,101120.20
2019-03-28T08:04:26.800Z,101124.63
2019-03-28T08:07:00.024Z,101119.30
2019-03-28T08:09:36.939Z,101114.95
2019-03-28T08:12:21.769Z,101115.08
2019-03-28T08:14:44.242Z,101114.08
2019-03-28T08:17:17.515Z,101114.64
2019-03-28T08:19:50.841Z,101115.54
2019-03-28T08:22:24.106Z,101113.58
2019-03-28T08:24:57.332Z,101114.83
2019-03-28T08:27:30.595Z,101118.92
2019-03-28T08:30:17.229Z,101111.27
2019-03-28T08:32:39.976Z,101110.59
2019-03-28T08:35:15.061Z,101108.20
2019-03-28T08:37:48.337Z,101110.80
2019-03-28T08:40:39.436Z,101102.80
2019-03-28T08:43:11.516Z,101104.34
2019-03-28T08:45:44.791Z,101099.67
2019-03-28T08:48:18.029Z,101100.34
2019-03-28T08:50:51.255Z,101100.09
2019-03-28T08:53:24.488Z,101102.13
2019-03-28T08:55:57.736Z,101112.13
2019-03-28T08:58:30.972Z,101105.70
2019-03-28T09:01:05.958Z,101100.09
2019-03-28T09:03:39.360Z,101097.86
2019-03-28T09:06:12.682Z,101092.65
2019-03-28T09:08:45.906Z,101099.42
2019-03-28T09:11:21.471Z,101097.69
2019-03-28T09:13:54.333Z,101103.53
2019-03-28T09:16:27.572Z,101097.48
2019-03-28T09:19:00.850Z,101096.38
2019-03-28T09:21:34.157Z,101098.02
2019-03-28T09:24:07.487Z,101093.89
2019-03-28T09:26:40.733Z,101093.15
2019-03-28T09:29:14.065Z,101090.27
2019-03-28T09:31:47.320Z,101095.11
2019-03-28T09:34:20.860Z,101087.70
2019-03-28T09:36:54.110Z,101091.89
2019-03-28T09:39:27.371Z,101087.62
2019-03-28T09:42:00.612Z,101085.10
2019-03-28T09:44:33.867Z,101078.72
2019-03-28T09:47:07.091Z,101083.84
2019-03-28T09:49:40.375Z,101083.69
2019-03-28T09:52:13.626Z,101077.78
2019-03-28T09:54:46.894Z,101074.80
2019-03-28T09:57:20.128Z,101072.51
2019-03-28T09:59:53.406Z,101074.58
2019-03-28T10:02:26.643Z,101066.03
2019-03-28T10:05:00.049Z,101064.00
2019-03-28T10:07:33.268Z,101060.33
2019-03-28T10:10:09.163Z,101058.80
2019-03-28T10:12:44.136Z,101054.09
2019-03-28T10:15:16.605Z,101057.17
2019-03-28T10:17:50.927Z,101052.41
2019-03-28T10:20:24.331Z,101053.38
2019-03-28T10:22:57.581Z,101047.80
2019-03-28T10:25:30.814Z,101043.68
2019-03-28T10:28:04.036Z,101040.09
2019-03-28T10:30:49.667Z,101040.47
2019-03-28T10:33:22.936Z,101042.84
2019-03-28T10:35:56.685Z,101035.63
2019-03-28T10:38:30.225Z,101035.17
2019-03-28T10:41:04.080Z,101040.81
2019-03-28T10:43:37.316Z,101049.57
2019-03-28T10:46:10.547Z,101050.94
2019-03-28T10:48:43.819Z,101044.00
2019-03-28T10:51:17.045Z,101049.63
2019-03-28T10:53:50.285Z,101046.22
2019-03-28T10:56:24.254Z,101046.24
2019-03-28T10:58:57.792Z,101046.69
2019-03-28T11:01:47.433Z,101049.23
2019-03-28T11:04:05.982Z,101044.05
2019-03-28T11:06:39.229Z,101047.91
2019-03-28T11:09:12.466Z,101051.13
2019-03-28T11:11:45.734Z,101044.52
2019-03-28T11:14:19.048Z,101044.09
2019-03-28T11:16:53.153Z,101040.30
2019-03-28T11:19:26.382Z,101037.56
2019-03-28T11:21:59.622Z,101034.48
2019-03-28T11:24:32.846Z,101033.13
2019-03-28T11:27:06.104Z,101035.54
2019-03-28T11:29:39.320Z,101030.78
2019-03-28T11:32:12.574Z,101030.23
2019-03-28T11:34:45.828Z,101032.53
2019-03-28T11:37:25.978Z,101025.64
2019-03-28T11:39:54.035Z,101025.34
2019-03-28T11:42:27.812Z,101024.89
2019-03-28T11:45:01.234Z,101027.35
2019-03-28T11:47:34.510Z,101018.28
2019-03-28T11:50:08.734Z,101021.05
2019-03-28T11:52:42.835Z,101018.61
2019-03-28T11:55:16.305Z,101021.28
2019-03-28T11:57:49.572Z,101022.17
2019-03-28T12:00:22.826Z,101012.80
2019-03-28T12:02:56.071Z,101014.48
2019-03-28T12:05:29.389Z,101009.75
2019-03-28T12:08:02.636Z,101002.50
2019-03-28T12:10:35.874Z,100999.81
2019-03-28T12:13:09.195Z,100998.71
2019-03-28T12:15:42.438Z,101002.41
2019-03-28T12:18:16.764Z,100997.60
2019-03-28T12:20:49.988Z,100997.00
2019-03-28T12:23:23.275Z,100990.75
2019-03-28T12:25:56.696Z,100990.96
2019-03-28T12:28:30.116Z,100984.93
2019-03-28T12:31:03.304Z,100987.45
2019-03-28T12:33:36.560Z,100982.06
2019-03-28T12:36:09.862Z,100982.80
2019-03-28T12:38:43.125Z,100985.21
2019-03-28T12:41:16.363Z,100985.03
2019-03-28T12:43:49.636Z,100982.24
2019-03-28T12:46:25.588Z,100978.83
2019-03-28T12:48:57.881Z,100975.56
2019-03-28T12:51:31.120Z,100983.95
2019-03-28T12:54:04.417Z,100984.48
2019-03-28T12:56:38.079Z,100989.27
2019-03-28T12:59:11.962Z,100981.31
2019-03-28T13:01:46.751Z,100983.87
2019-03-28T13:04:20.107Z,100980.30
2019-03-28T13:06:53.391Z,100976.54
2019-03-28T13:09:28.159Z,100974.95
2019-03-28T13:12:01.544Z,100973.69
2019-03-28T13:14:34.784Z,100970.19
2019-03-28T13:17:08.002Z,100976.80
2019-03-28T13:19:41.181Z,100973.10
2019-03-28T13:22:14.497Z,100971.66
2019-03-28T13:24:47.765Z,100968.39
2019-03-28T13:27:21.070Z,100973.28
2019-03-28T13:29:55.150Z,100973.63
2019-03-28T13:32:41.073Z,100972.73
2019-03-28T13:35:03.380Z,100972.30
2019-03-28T13:37:36.621Z,100972.37
2019-03-28T13:40:09.925Z,100968.38
2019-03-28T13:42:43.131Z,100964.44
2019-03-28T13:45:17.928Z,100965.47
2019-03-28T13:47:54.181Z,100960.16
2019-03-28T13:50:26.059Z,100949.06
2019-03-28T13:52:59.285Z,100957.92
2019-03-28T13:55:32.549Z,100950.22
2019-03-28T13:58:05.824Z,100962.64
2019-03-28T14:00:39.474Z,100961.63
2019-03-28T14:03:12.690Z,100963.89
2019-03-28T14:05:45.992Z,100966.22
2019-03-28T14:08:19.362Z,100962.67
2019-03-28T14:10:53.195Z,100964.65
2019-03-28T14:13:26.650Z,100965.69
2019-03-28T14:16:00.226Z,100962.16
2019-03-28T14:18:35.970Z,100966.79
2019-03-28T14:21:09.400Z,100962.80
2019-03-28T14:23:42.951Z,100957.54
2019-03-28T14:26:16.456Z,100959.25
2019-03-28T14:28:50.437Z,100959.16
2019-03-28T14:31:24.100Z,100954.84
2019-03-28T14:33:57.783Z,100954.94
2019-03-28T14:36:31.539Z,100953.31
2019-03-28T14:39:06.558Z,100949.40
2019-03-28T14:41:39.792Z,100949.88
2019-03-28T14:44:13.104Z,100953.29
2019-03-28T14:46:46.449Z,100953.53
2019-03-28T14:49:19.946Z,100948.00
2019-03-28T14:51:53.331Z,100952.92
2019-03-28T14:54:26.929Z,100960.19
2019-03-28T14:57:00.856Z,100958.58
2019-03-28T14:59:34.724Z,100958.11
2019-03-28T15:02:08.224Z,100951.92
2019-03-28T15:04:41.459Z,100950.63
2019-03-28T15:07:14.928Z,100954.52
2019-03-28T15:09:48.260Z,100948.06
2019-03-28T15:12:21.965Z,100948.31
2019-03-28T15:14:55.314Z,100952.44
2019-03-28T15:17:29.700Z,100948.52
2019-03-28T15:20:03.352Z,100945.05
2019-03-28T15:22:36.699Z,100945.31
2019-03-28T15:25:10.219Z,100945.16
2019-03-28T15:27:43.519Z,100942.64
2019-03-28T15:30:16.998Z,100942.33
2019-03-28T15:32:50.317Z,100939.52
2019-03-28T15:35:23.884Z,100938.89
2019-03-28T15:37:58.177Z,100938.84
2019-03-28T15:40:31.408Z,100934.84
2019-03-28T15:43:04.666Z,100934.67
2019-03-28T15:45:39.014Z,100931.41
2019-03-28T15:48:13.498Z,100935.58
2019-03-28T15:50:47.699Z,100935.09
2019-03-28T15:53:21.297Z,100936.03
2019-03-28T15:55:55.021Z,100930.30
2019-03-28T15:58:28.595Z,100933.30
2019-03-28T16:01:04.785Z,100933.16
2019-03-28T16:03:51.997Z,100933.59
2019-03-28T16:06:13.384Z,100933.44
2019-03-28T16:08:46.915Z,100931.16
2019-03-28T16:11:20.398Z,100934.55
2019-03-28T16:13:55.448Z,100930.71
2019-03-28T16:16:29.884Z,100934.14
2019-03-28T16:19:03.363Z,100933.92
2019-03-28T16:21:37.225Z,100933.17
2019-03-28T16:24:10.672Z,100936.55
2019-03-28T16:26:44.324Z,100937.20
2019-03-28T16:29:18.367Z,100939.11
2019-03-28T16:31:52.845Z,100939.58
2019-03-28T16:34:26.578Z,100940.47
2019-03-28T16:36:59.801Z,100940.34
2019-03-28T16:39:33.083Z,100938.17
2019-03-28T16:42:06.322Z,100934.28
2019-03-28T16:44:39.560Z,100937.95
2019-03-28T16:47:12.786Z,100936.69
2019-03-28T16:49:46.056Z,100938.78
2019-03-28T16:52:19.276Z,100941.98
2019-03-28T16:54:53.550Z,100940.87
2019-03-28T16:57:26.980Z,100940.31
2019-03-28T17:00:00.395Z,100939.99
2019-03-28T17:02:34.862Z,100939.63
2019-03-28T17:05:08.684Z,100945.41
2019-03-28T17:07:41.904Z,100941.92
2019-03-28T17:10:54.025Z,100944.92
2019-03-28T17:13:27.243Z,100951.59
2019-03-28T17:16:00.478Z,100952.58
2019-03-28T17:18:33.764Z,100950.67
2019-03-28T17:21:07.014Z,100948.92
2019-03-28T17:23:40.265Z,100949.24
2019-03-28T17:26:13.526Z,100953.95
2019-03-28T17:28:46.863Z,100956.88
2019-03-28T17:31:20.110Z,100953.67
2019-03-28T17:33:53.343Z,100955.78
2019-03-28T17:36:26.965Z,100957.29
2019-03-28T17:39:00.409Z,100959.06
2019-03-28T17:41:33.735Z,100962.02
2019-03-28T17:44:07.865Z,100963.20
2019-03-28T17:46:41.281Z,100965.04
2019-03-28T17:49:14.539Z,100964.91
2019-03-28T17:51:47.809Z,100968.12
2019-03-28T17:54:21.033Z,100969.10
2019-03-28T17:56:54.287Z,100972.05
2019-03-28T17:59:27.528Z,100973.05
2019-03-28T18:02:00.772Z,100974.23
2019-03-28T18:04:47.201Z,100976.50
2019-03-28T18:07:08.955Z,100973.61
2019-03-28T18:09:42.171Z,100973.06
2019-03-28T18:12:15.403Z,100979.48
2019-03-28T18:14:49.617Z,100975.95
2019-03-28T18:17:23.042Z,100979.77
2019-03-28T18:19:56.254Z,100979.71
2019-03-28T18:22:29.496Z,100981.78
2019-03-28T18:25:02.703Z,100982.48
2019-03-28T18:27:35.935Z,100984.66
2019-03-28T18:30:09.393Z,100991.62
2019-03-28T18:32:42.627Z,100994.50
2019-03-28T18:35:15.840Z,100995.37
2019-03-28T18:37:49.082Z,100995.67
2019-03-28T18:40:22.300Z,100996.50
2019-03-28T18:42:55.543Z,100995.75
2019-03-28T18:45:28.751Z,100995.27
2019-03-28T18:48:02.079Z,101004.03
2019-03-28T18:50:35.329Z,101001.54
2019-03-28T18:53:09.657Z,101008.56
2019-03-28T18:55:42.864Z,101003.22
2019-03-28T18:58:16.180Z,101003.67
2019-03-28T19:00:49.403Z,101006.02
2019-03-28T19:03:22.646Z,101003.17
2019-03-28T19:05:55.873Z,101007.42
2019-03-28T19:08:29.104Z,101007.86
2019-03-28T19:11:02.329Z,101006.21
2019-03-28T19:13:35.571Z,101008.98
2019-03-28T19:16:08.794Z,101011.16
2019-03-28T19:18:42.029Z,101015.00
2019-03-28T19:21:15.251Z,101014.19
2019-03-28T19:23:48.512Z,101019.25
2019-03-28T19:26:21.734Z,101017.49
2019-03-28T19:28:56.273Z,101015.00
2019-03-28T19:31:30.836Z,101021.78
2019-03-28T19:34:04.074Z,101017.42
2019-03-28T19:36:37.312Z,101025.61
2019-03-28T19:39:11.972Z,101026.34
2019-03-28T19:41:45.192Z,101027.27
2019-03-28T19:44:18.438Z,101025.53
2019-03-28T19:46:51.727Z,101030.20
2019-03-28T19:49:24.959Z,101028.34
2019-03-28T19:51:58.315Z,101019.31
2019-03-28T19:54:31.550Z,101019.25
2019-03-28T19:57:04.769Z,101019.72
2019-03-28T19:59:39.148Z,101020.19
2019-03-28T20:02:14.189Z,101016.94
2019-03-28T20:04:47.323Z,101013.50
2019-03-28T20:07:22.158Z,101008.21
2019-03-28T20:09:57.366Z,101008.38
2019-03-28T20:12:31.141Z,101015.03
2019-03-28T20:15:04.987Z,101016.20
2019-03-28T20:17:38.232Z,101012.84
2019-03-28T20:20:11.495Z,101009.42
2019-03-28T20:22:45.039Z,101010.94
2019-03-28T20:25:18.442Z,101006.10
2019-03-28T20:27:51.759Z,101003.84
2019-03-28T20:30:25.617Z,101004.69
2019-03-28T20:32:58.933Z,101004.44
2019-03-28T20:35:32.154Z,101001.52
2019-03-28T20:38:05.415Z,101003.59
2019-03-28T20:40:38.638Z,100995.08
2019-03-28T20:43:11.954Z,101002.91
2019-03-28T20:45:45.173Z,101004.33
2019-03-28T20:48:18.428Z,101006.82
2019-03-28T20:50:51.676Z,101004.08
2019-03-28T20:53:24.932Z,101011.52
2019-03-28T20:55:58.155Z,101012.33
2019-03-28T20:58:31.335Z,101014.23
2019-03-28T21:01:04.894Z,101017.86
2019-03-28T21:03:38.459Z,101017.27
2019-03-28T21:06:15.491Z,101021.92
2019-03-28T21:08:47.237Z,101011.73
2019-03-28T21:11:20.474Z,101019.66
2019-03-28T21:13:53.721Z,101016.91
2019-03-28T21:16:26.951Z,101012.89
2019-03-28T21:19:00.261Z,101013.62
2019-03-28T21:21:34.554Z,101008.62
2019-03-28T21:24:07.795Z,101007.25
2019-03-28T21:26:41.294Z,101000.61
2019-03-28T21:29:14.636Z,101004.39
2019-03-28T21:31:50.190Z,100999.93
2019-03-28T21:34:22.791Z,100999.61
2019-03-28T21:36:56.020Z,100997.69
2019-03-28T21:39:29.263Z,100995.02
2019-03-28T21:42:02.491Z,100992.58
2019-03-28T21:44:35.739Z,100996.08
2019-03-28T21:47:08.963Z,100988.63
2019-03-28T21:49:42.279Z,100992.63
2019-03-28T21:52:15.548Z,100991.42
2019-03-28T21:54:48.861Z,100992.84
2019-03-28T21:57:22.090Z,100994.05
2019-03-28T21:59:55.359Z,100996.50
2019-03-28T22:02:28.580Z,100995.54
2019-03-28T22:05:01.825Z,100992.66
2019-03-28T22:07:35.217Z,100988.59
2019-03-28T22:10:09.646Z,100992.31
2019-03-28T22:12:42.873Z,100989.98
2019-03-28T22:15:16.120Z,100988.97
2019-03-28T22:17:49.335Z,100988.94
2019-03-28T22:20:22.941Z,100993.24
2019-03-28T22:22:56.160Z,100993.80
2019-03-28T22:25:29.400Z,100991.42
2019-03-28T22:28:02.677Z,100992.85
2019-03-28T22:30:35.943Z,100996.21
2019-03-28T22:33:09.176Z,100987.15
2019-03-28T22:35:42.350Z,100989.80
2019-03-28T22:38:15.577Z,100986.25
2019-03-28T22:40:48.823Z,100984.98
2019-03-28T22:43:22.046Z,100984.00
2019-03-28T22:45:55.291Z,100981.02
2019-03-28T22:48:28.558Z,100983.07
2019-03-28T22:51:01.791Z,100980.03
2019-03-28T22:53:35.042Z,100981.75
2019-03-28T22:56:08.284Z,100984.69
2019-03-28T22:58:41.533Z,100983.31
2019-03-28T23:01:14.825Z,100985.80
2019-03-28T23:03:49.657Z,100975.23
2019-03-28T23:06:23.028Z,100981.98
2019-03-28T23:08:56.505Z,100979.34
2019-03-28T23:11:29.767Z,100977.25
2019-03-28T23:14:02.990Z,100974.94
2019-03-28T23:16:36.238Z,100974.59
2019-03-28T23:19:12.020Z,100971.73
2019-03-28T23:21:44.404Z,100981.23
2019-03-28T23:24:17.837Z,100979.91
2019-03-28T23:26:51.151Z,100979.94
2019-03-28T23:29:24.367Z,100989.06
2019-03-28T23:31:57.659Z,100987.64
2019-03-28T23:34:30.948Z,100986.34
2019-03-28T23:37:04.226Z,100987.19
2019-03-28T23:39:39.602Z,100985.84
2019-03-28T23:42:13.825Z,100984.62
2019-03-28T23:44:47.253Z,100989.57
2019-03-28T23:47:20.536Z,100993.45
2019-03-28T23:49:53.790Z,100987.95
2019-03-28T23:52:27.979Z,100987.06
2019-03-28T23:55:01.197Z,100995.67
2019-03-28T23:57:34.448Z,100997.39
